createdAt,value
2018-02-14T00:02:10.397Z,98881.00
2018-02-14T00:04:38.526Z,98882.34
2018-02-14T00:07:08.435Z,98895.23
2018-02-14T00:09:37.484Z,98886.09
2018-02-14T00:12:06.606Z,98883.98
2018-02-14T00:14:35.213Z,98881.44
2018-02-14T00:17:04.334Z,98881.88
2018-02-14T00:19:33.153Z,98881.80
2018-02-14T00:22:00.868Z,98880.69
2018-02-14T00:24:30.253Z,98882.45
2018-02-14T00:27:00.095Z,98886.63
2018-02-14T00:29:30.197Z,98880.72
2018-02-14T00:31:59.648Z,98880.55
2018-02-14T00:34:28.370Z,98884.49
2018-02-14T00:36:57.479Z,98888.19
2018-02-14T00:39:25.856Z,98875.59
2018-02-14T00:41:53.557Z,98883.02
2018-02-14T00:44:22.312Z,98882.79
2018-02-14T00:46:52.780Z,98883.31
2018-02-14T00:49:20.609Z,98885.22
2018-02-14T00:51:48.146Z,98893.03
2018-02-14T00:54:15.697Z,98882.73
2018-02-14T00:56:43.380Z,98897.17
2018-02-14T00:59:10.926Z,98899.46
2018-02-14T01:01:38.503Z,98910.62
2018-02-14T01:04:06.106Z,98902.14
2018-02-14T01:06:33.659Z,98898.67
2018-02-14T01:09:01.284Z,98903.84
2018-02-14T01:11:28.844Z,98896.63
2018-02-14T01:13:56.386Z,98905.72
2018-02-14T01:16:23.966Z,98898.72
2018-02-14T01:18:51.550Z,98903.91
2018-02-14T01:21:20.099Z,98909.03
2018-02-14T01:23:47.763Z,98903.34
2018-02-14T01:26:15.327Z,98915.98
2018-02-14T01:28:42.982Z,98907.53
2018-02-14T01:31:10.548Z,98913.11
2018-02-14T01:33:38.106Z,98916.86
2018-02-14T01:36:05.633Z,98928.98
2018-02-14T01:38:33.192Z,98920.97
2018-02-14T01:41:00.779Z,98925.80
2018-02-14T01:43:28.310Z,98923.80
2018-02-14T01:45:56.012Z,98939.59
2018-02-14T01:48:23.541Z,98924.69
2018-02-14T01:50:51.099Z,98929.92
2018-02-14T01:53:18.678Z,98936.05
2018-02-14T01:55:46.275Z,98931.39
2018-02-14T01:58:13.807Z,98925.86
2018-02-14T02:00:41.458Z,98941.94
2018-02-14T02:03:09.027Z,98942.09
2018-02-14T02:05:36.563Z,98940.06
2018-02-14T02:08:04.137Z,98962.22
2018-02-14T02:10:31.697Z,98945.73
2018-02-14T02:12:59.243Z,98946.30
2018-02-14T02:15:26.813Z,98952.38
2018-02-14T02:17:54.476Z,98943.47
2018-02-14T02:20:21.997Z,98948.04
2018-02-14T02:22:49.651Z,98952.80
2018-02-14T02:25:17.178Z,98953.42
2018-02-14T02:27:44.703Z,98944.95
2018-02-14T02:30:12.788Z,98951.67
2018-02-14T02:32:40.313Z,98948.95
2018-02-14T02:35:07.863Z,98947.84
2018-02-14T02:37:35.465Z,98951.02
2018-02-14T02:40:14.810Z,98931.59
2018-02-14T02:42:43.117Z,98953.23
2018-02-14T02:45:10.672Z,98945.53
2018-02-14T02:47:38.202Z,98944.52
2018-02-14T02:50:05.774Z,98950.78
2018-02-14T02:52:33.302Z,98953.81
2018-02-14T02:55:00.830Z,98944.70
2018-02-14T02:57:28.383Z,98955.98
2018-02-14T02:59:55.902Z,98949.16
2018-02-14T03:02:23.455Z,98953.38
2018-02-14T03:04:50.988Z,98968.14
2018-02-14T03:07:18.542Z,98959.38
2018-02-14T03:09:46.071Z,98963.97
2018-02-14T03:12:13.644Z,98958.97
2018-02-14T03:14:41.174Z,98966.66
2018-02-14T03:17:08.804Z,98967.60
2018-02-14T03:19:36.362Z,98978.36
2018-02-14T03:22:03.922Z,98980.45
2018-02-14T03:24:31.484Z,98985.16
2018-02-14T03:26:59.038Z,98980.30
2018-02-14T03:29:26.614Z,98986.28
2018-02-14T03:31:54.168Z,98989.45
2018-02-14T03:34:21.777Z,98988.08
2018-02-14T03:36:49.569Z,98998.06
2018-02-14T03:39:17.120Z,99003.20
2018-02-14T03:41:44.650Z,99002.84
2018-02-14T03:44:12.270Z,99000.30
2018-02-14T03:46:39.827Z,99001.19
2018-02-14T03:49:07.380Z,99000.52
2018-02-14T03:51:35.044Z,99008.89
2018-02-14T03:54:02.550Z,99011.98
2018-02-14T03:56:30.163Z,99014.70
2018-02-14T03:58:57.687Z,99022.91
2018-02-14T04:01:25.291Z,99029.91
2018-02-14T04:03:52.842Z,99030.61
2018-02-14T04:06:20.397Z,99033.91
2018-02-14T04:08:48.060Z,99048.02
2018-02-14T04:11:15.598Z,99052.17
2018-02-14T04:13:44.178Z,99024.13
2018-02-14T04:16:11.703Z,99063.70
2018-02-14T04:18:39.321Z,99060.35
2018-02-14T04:21:06.832Z,99055.39
2018-02-14T04:23:34.442Z,99070.81
2018-02-14T04:26:02.013Z,99086.55
2018-02-14T04:28:29.632Z,99076.80
2018-02-14T04:30:57.221Z,99086.78
2018-02-14T04:33:24.747Z,99076.48
2018-02-14T04:35:52.294Z,99087.30
2018-02-14T04:38:19.823Z,99091.88
2018-02-14T04:40:47.358Z,99092.75
2018-02-14T04:43:14.927Z,99097.88
2018-02-14T04:45:42.475Z,99123.91
2018-02-14T04:48:10.137Z,99109.06
2018-02-14T04:50:37.684Z,99115.07
2018-02-14T04:53:05.254Z,99113.75
2018-02-14T04:55:32.788Z,99122.27
2018-02-14T04:58:00.486Z,99126.46
2018-02-14T05:00:28.045Z,99131.66
2018-02-14T05:02:55.569Z,99140.22
2018-02-14T05:05:23.223Z,99139.40
2018-02-14T05:07:50.819Z,99142.83
2018-02-14T05:10:18.478Z,99141.59
2018-02-14T05:12:46.007Z,99151.83
2018-02-14T05:15:13.558Z,99154.51
2018-02-14T05:17:41.086Z,99153.59
2018-02-14T05:20:08.717Z,99162.98
2018-02-14T05:22:36.320Z,99159.20
2018-02-14T05:25:03.894Z,99160.44
2018-02-14T05:27:31.419Z,99165.53
2018-02-14T05:29:59.142Z,99147.73
2018-02-14T05:32:26.699Z,99169.47
2018-02-14T05:34:54.277Z,99163.14
2018-02-14T05:37:21.939Z,99170.45
2018-02-14T05:39:49.496Z,99168.91
2018-02-14T05:42:17.160Z,99177.70
2018-02-14T05:44:45.235Z,99173.55
2018-02-14T05:47:12.815Z,99170.60
2018-02-14T05:49:40.350Z,99179.91
2018-02-14T05:52:07.888Z,99171.44
2018-02-14T05:54:35.444Z,99168.01
2018-02-14T05:57:02.973Z,99166.23
2018-02-14T05:59:30.598Z,99167.53
2018-02-14T06:01:58.128Z,99177.06
2018-02-14T06:04:25.707Z,99164.13
2018-02-14T06:06:53.264Z,99164.12
2018-02-14T06:09:20.930Z,99165.02
2018-02-14T06:11:48.486Z,99167.48
2018-02-14T06:14:16.149Z,99180.28
2018-02-14T06:16:43.664Z,99183.28
2018-02-14T06:19:11.216Z,99179.89
2018-02-14T06:21:38.827Z,99181.62
2018-02-14T06:24:06.386Z,99182.12
2018-02-14T06:26:34.049Z,99188.13
2018-02-14T06:29:01.574Z,99196.71
2018-02-14T06:31:29.178Z,99203.19
2018-02-14T06:33:56.699Z,99212.94
2018-02-14T06:36:24.310Z,99217.61
2018-02-14T06:38:51.847Z,99217.55
2018-02-14T06:41:19.362Z,99209.55
2018-02-14T06:43:47.679Z,99216.00
2018-02-14T06:46:15.235Z,99217.20
2018-02-14T06:48:42.842Z,99220.17
2018-02-14T06:51:10.462Z,99220.29
2018-02-14T06:53:38.026Z,99226.65
2018-02-14T06:56:05.585Z,99229.59
2018-02-14T06:58:33.153Z,99230.45
2018-02-14T07:01:00.731Z,99237.26
2018-02-14T07:03:28.305Z,99239.73
2018-02-14T07:05:55.914Z,99227.17
2018-02-14T07:08:23.479Z,99230.19
2018-02-14T07:10:51.187Z,99239.05
2018-02-14T07:13:19.417Z,99239.86
2018-02-14T07:15:47.078Z,99241.14
2018-02-14T07:18:14.594Z,99248.06
2018-02-14T07:20:42.196Z,99244.96
2018-02-14T07:23:09.723Z,99253.55
2018-02-14T07:25:37.330Z,99246.60
2018-02-14T07:28:04.855Z,99258.11
2018-02-14T07:30:32.380Z,99256.36
2018-02-14T07:32:59.929Z,99257.61
2018-02-14T07:35:27.462Z,99268.81
2018-02-14T07:37:55.021Z,99264.36
2018-02-14T07:40:22.540Z,99268.20
2018-02-14T07:42:50.418Z,99276.39
2018-02-14T07:45:17.997Z,99277.13
2018-02-14T07:47:45.554Z,99274.89
2018-02-14T07:50:13.112Z,99285.17
2018-02-14T07:52:40.674Z,99288.16
2018-02-14T07:55:08.310Z,99297.53
2018-02-14T07:57:35.862Z,99307.33
2018-02-14T08:00:03.412Z,99309.38
2018-02-14T08:02:30.934Z,99299.95
2018-02-14T08:04:58.571Z,99304.33
2018-02-14T08:07:26.094Z,99308.42
2018-02-14T08:09:53.689Z,99305.41
2018-02-14T08:12:23.722Z,99308.32
2018-02-14T08:14:51.252Z,99311.80
2018-02-14T08:17:18.850Z,99310.48
2018-02-14T08:19:46.384Z,99318.47
2018-02-14T08:22:13.930Z,99308.53
2018-02-14T08:24:41.454Z,99307.59
2018-02-14T08:27:09.006Z,99324.88
2018-02-14T08:29:36.534Z,99308.53
2018-02-14T08:32:04.188Z,99315.95
2018-02-14T08:34:31.739Z,99312.41
2018-02-14T08:36:59.300Z,99319.61
2018-02-14T08:39:27.282Z,99316.22
2018-02-14T08:41:54.897Z,99323.04
2018-02-14T08:44:22.451Z,99320.02
2018-02-14T08:46:50.014Z,99318.19
2018-02-14T08:49:18.880Z,99318.97
2018-02-14T08:51:46.410Z,99321.75
2018-02-14T08:54:14.722Z,99323.89
2018-02-14T08:56:50.164Z,99326.23
2018-02-14T08:59:18.183Z,99328.28
2018-02-14T09:01:45.759Z,99319.41
2018-02-14T09:04:13.297Z,99333.31
2018-02-14T09:06:40.971Z,99332.86
2018-02-14T09:09:08.839Z,99348.67
2018-02-14T09:11:36.394Z,99339.94
2018-02-14T09:14:03.926Z,99338.99
2018-02-14T09:16:32.208Z,99347.51
2018-02-14T09:19:02.367Z,99354.16
2018-02-14T09:21:30.343Z,99353.22
2018-02-14T09:23:59.285Z,99363.03
2018-02-14T09:26:26.869Z,99360.47
2018-02-14T09:28:54.442Z,99373.52
2018-02-14T09:31:22.533Z,99370.84
2018-02-14T09:33:50.123Z,99383.22
2018-02-14T09:36:17.720Z,99378.46
2018-02-14T09:38:45.278Z,99370.19
2018-02-14T09:41:13.000Z,99373.09
2018-02-14T09:43:40.607Z,99373.19
2018-02-14T09:46:08.130Z,99361.15
2018-02-14T09:48:35.724Z,99375.93
2018-02-14T09:51:03.610Z,99370.16
2018-02-14T09:53:31.256Z,99364.52
2018-02-14T09:55:58.823Z,99379.43
2018-02-14T09:58:26.366Z,99370.31
2018-02-14T10:00:53.917Z,99369.13
2018-02-14T10:03:22.496Z,99371.32
2018-02-14T10:05:50.054Z,99365.50
2018-02-14T10:08:17.575Z,99372.14
2018-02-14T10:10:45.206Z,99374.25
2018-02-14T10:13:12.735Z,99366.10
2018-02-14T10:15:40.308Z,99368.09
2018-02-14T10:18:07.858Z,99368.11
2018-02-14T10:20:35.385Z,99364.23
2018-02-14T10:23:02.967Z,99368.01
2018-02-14T10:25:30.545Z,99368.72
2018-02-14T10:27:58.095Z,99369.82
2018-02-14T10:30:25.622Z,99362.94
2018-02-14T10:32:53.173Z,99371.59
2018-02-14T10:35:20.749Z,99371.45
2018-02-14T10:37:48.282Z,99362.86
2018-02-14T10:40:15.830Z,99357.86
2018-02-14T10:42:43.354Z,99362.00
2018-02-14T10:45:10.909Z,99362.69
2018-02-14T10:47:38.429Z,99353.42
2018-02-14T10:50:05.991Z,99350.91
2018-02-14T10:52:33.557Z,99354.80
2018-02-14T10:55:07.962Z,99354.63
2018-02-14T10:57:35.546Z,99344.59
2018-02-14T11:00:03.205Z,99346.73
2018-02-14T11:02:36.425Z,99342.09
2018-02-14T11:05:09.629Z,99345.06
2018-02-14T11:07:37.331Z,99338.16
2018-02-14T11:10:05.259Z,99350.83
2018-02-14T11:12:35.737Z,99348.88
2018-02-14T11:15:03.340Z,99350.49
2018-02-14T11:17:31.102Z,99342.71
2018-02-14T11:19:59.792Z,99343.76
2018-02-14T11:22:28.758Z,99339.52
2018-02-14T11:24:57.671Z,99339.53
2018-02-14T11:27:26.621Z,99342.46
2018-02-14T11:29:55.578Z,99345.98
2018-02-14T11:32:24.900Z,99352.44
2018-02-14T11:34:52.411Z,99341.65
2018-02-14T11:37:19.973Z,99344.47
2018-02-14T11:39:47.510Z,99345.91
2018-02-14T11:42:15.092Z,99332.59
2018-02-14T11:44:43.881Z,99328.58
2018-02-14T11:47:11.543Z,99329.22
2018-02-14T11:49:39.112Z,99330.86
2018-02-14T11:52:06.770Z,99334.43
2018-02-14T11:54:34.322Z,99326.69
2018-02-14T11:57:01.875Z,99324.20
2018-02-14T11:59:29.398Z,99324.45
2018-02-14T12:01:56.999Z,99327.83
2018-02-14T12:04:24.558Z,99325.98
2018-02-14T12:06:53.157Z,99339.55
2018-02-14T12:09:21.259Z,99332.73
2018-02-14T12:11:49.088Z,99325.41
2018-02-14T12:14:17.867Z,99325.84
2018-02-14T12:16:45.418Z,99321.41
2018-02-14T12:19:15.440Z,99325.77
2018-02-14T12:21:42.974Z,99316.70
2018-02-14T12:24:11.175Z,99317.70
2018-02-14T12:26:40.018Z,99324.98
2018-02-14T12:29:09.366Z,99320.11
2018-02-14T12:31:36.884Z,99320.09
2018-02-14T12:34:06.129Z,99330.48
2018-02-14T12:36:34.411Z,99316.83
2018-02-14T12:39:02.466Z,99333.27
2018-02-14T12:41:33.750Z,99328.63
2018-02-14T12:44:04.485Z,99315.05
2018-02-14T12:46:34.215Z,99302.43
2018-02-14T12:49:01.794Z,99301.45
2018-02-14T12:51:30.091Z,99287.69
2018-02-14T12:53:58.577Z,99291.30
2018-02-14T12:56:28.089Z,99296.81
2018-02-14T12:58:55.754Z,99289.98
2018-02-14T13:01:23.333Z,99291.50
2018-02-14T13:03:50.965Z,99283.44
2018-02-14T13:06:18.563Z,99275.02
2018-02-14T13:08:46.123Z,99284.28
2018-02-14T13:11:13.815Z,99271.86
2018-02-14T13:13:42.371Z,99278.65
2018-02-14T13:16:09.999Z,99274.45
2018-02-14T13:18:37.754Z,99265.69
2018-02-14T13:21:06.300Z,99270.71
2018-02-14T13:23:34.321Z,99276.30
2018-02-14T13:26:04.170Z,99279.53
2018-02-14T13:28:34.268Z,99272.13
2018-02-14T13:31:02.171Z,99272.75
2018-02-14T13:33:30.263Z,99275.08
2018-02-14T13:35:58.115Z,99277.78
2018-02-14T13:38:25.890Z,99272.42
2018-02-14T13:40:53.446Z,99274.28
2018-02-14T13:43:21.526Z,99279.39
2018-02-14T13:45:49.519Z,99270.50
2018-02-14T13:48:17.050Z,99269.74
2018-02-14T13:50:45.927Z,99275.61
2018-02-14T13:53:13.476Z,99272.39
2018-02-14T13:55:40.979Z,99273.09
2018-02-14T13:58:13.294Z,99227.13
2018-02-14T14:00:47.263Z,99277.77
2018-02-14T14:03:15.245Z,99280.03
2018-02-14T14:05:42.771Z,99273.45
2018-02-14T14:08:10.903Z,99267.42
2018-02-14T14:10:39.817Z,99274.86
2018-02-14T14:13:07.399Z,99283.20
2018-02-14T14:15:35.245Z,99294.08
2018-02-14T14:18:02.803Z,99289.38
2018-02-14T14:20:30.405Z,99300.79
2018-02-14T14:22:57.958Z,99284.77
2018-02-14T14:25:25.711Z,99289.89
2018-02-14T14:27:53.211Z,99300.39
2018-02-14T14:30:20.831Z,99282.64
2018-02-14T14:32:49.345Z,99290.00
2018-02-14T14:35:17.371Z,99282.82
2018-02-14T14:37:44.894Z,99293.23
2018-02-14T14:40:12.478Z,99297.44
2018-02-14T14:42:40.052Z,99291.09
2018-02-14T14:45:07.580Z,99295.75
2018-02-14T14:47:35.430Z,99298.09
2018-02-14T14:50:03.047Z,99297.86
2018-02-14T14:52:30.612Z,99287.41
2018-02-14T14:54:58.165Z,99293.77
2018-02-14T14:57:25.834Z,99283.79
2018-02-14T14:59:53.897Z,99277.11
2018-02-14T15:02:21.558Z,99276.46
2018-02-14T15:04:49.171Z,99284.95
2018-02-14T15:07:16.718Z,99289.52
2018-02-14T15:09:44.250Z,99284.92
2018-02-14T15:12:12.029Z,99288.30
2018-02-14T15:14:39.662Z,99296.91
2018-02-14T15:17:07.637Z,99280.50
2018-02-14T15:19:36.315Z,99258.68
2018-02-14T15:22:03.877Z,99293.36
2018-02-14T15:24:31.660Z,99286.95
2018-02-14T15:26:59.346Z,99287.28
2018-02-14T15:29:26.995Z,99291.58
2018-02-14T15:31:54.637Z,99288.03
2018-02-14T15:34:22.194Z,99281.09
2018-02-14T15:36:51.704Z,99282.98
2018-02-14T15:39:19.349Z,99289.48
2018-02-14T15:41:46.858Z,99287.90
2018-02-14T15:44:14.410Z,99293.41
2018-02-14T15:46:41.936Z,99298.16
2018-02-14T15:49:09.487Z,99297.93
2018-02-14T15:51:37.013Z,99285.78
2018-02-14T15:54:04.566Z,99285.69
2018-02-14T15:56:32.090Z,99290.48
2018-02-14T15:58:59.646Z,99289.45
2018-02-14T16:01:27.598Z,99292.13
2018-02-14T16:03:56.000Z,99295.16
2018-02-14T16:06:23.552Z,99295.09
2018-02-14T16:08:51.198Z,99301.73
2018-02-14T16:11:18.757Z,99300.47
2018-02-14T16:13:46.311Z,99308.24
2018-02-14T16:16:15.890Z,99305.21
2018-02-14T16:18:43.837Z,99320.89
2018-02-14T16:21:13.224Z,99313.25
2018-02-14T16:23:41.890Z,99300.72
2018-02-14T16:26:09.640Z,99295.12
2018-02-14T16:28:38.749Z,99293.34
2018-02-14T16:31:07.164Z,99293.08
2018-02-14T16:33:34.799Z,99293.77
2018-02-14T16:36:07.079Z,99290.80
2018-02-14T16:38:37.510Z,99286.79
2018-02-14T16:41:05.537Z,99297.03
2018-02-14T16:43:34.566Z,99305.03
2018-02-14T16:46:02.591Z,99316.06
2018-02-14T16:48:32.997Z,99330.62
2018-02-14T16:51:04.378Z,99329.42
2018-02-14T16:53:31.914Z,99344.48
2018-02-14T16:55:59.422Z,99336.67
2018-02-14T16:58:28.551Z,99338.73
2018-02-14T17:00:56.127Z,99340.13
2018-02-14T17:03:29.369Z,99351.14
2018-02-14T17:05:59.834Z,99348.78
2018-02-14T17:08:28.234Z,99344.15
2018-02-14T17:10:55.921Z,99343.41
2018-02-14T17:13:23.990Z,99353.18
2018-02-14T17:15:52.618Z,99354.52
2018-02-14T17:18:21.983Z,99359.70
2018-02-14T17:20:52.748Z,99352.98
2018-02-14T17:23:23.594Z,99367.92
2018-02-14T17:25:51.375Z,99348.16
2018-02-14T17:28:22.934Z,99329.97
2018-02-14T17:30:52.058Z,99330.86
2018-02-14T17:33:19.861Z,99335.20
2018-02-14T17:35:47.738Z,99349.95
2018-02-14T17:38:16.307Z,99337.80
2018-02-14T17:40:45.039Z,99329.44
2018-02-14T17:43:14.653Z,99326.05
2018-02-14T17:45:42.565Z,99341.34
2018-02-14T17:48:11.376Z,99333.52
2018-02-14T17:50:39.122Z,99336.23
2018-02-14T17:53:06.678Z,99350.44
2018-02-14T17:55:35.182Z,99347.47
2018-02-14T17:58:02.703Z,99346.75
2018-02-14T18:00:30.307Z,99341.81
2018-02-14T18:02:57.863Z,99336.13
2018-02-14T18:05:25.478Z,99316.02
2018-02-14T18:07:53.014Z,99326.85
2018-02-14T18:10:20.571Z,99334.80
2018-02-14T18:12:48.120Z,99326.20
2018-02-14T18:15:15.689Z,99317.25
2018-02-14T18:17:43.252Z,99325.22
2018-02-14T18:20:10.787Z,99328.86
2018-02-14T18:22:38.355Z,99318.13
2018-02-14T18:25:05.880Z,99320.45
2018-02-14T18:27:33.432Z,99328.94
2018-02-14T18:30:00.950Z,99334.84
2018-02-14T18:32:28.503Z,99330.47
2018-02-14T18:34:58.484Z,99329.86
2018-02-14T18:37:26.743Z,99327.91
2018-02-14T18:39:54.274Z,99337.36
2018-02-14T18:42:21.815Z,99317.75
2018-02-14T18:44:49.348Z,99329.06
2018-02-14T18:47:16.900Z,99324.80
2018-02-14T18:49:44.431Z,99316.67
2018-02-14T18:52:11.978Z,99320.48
2018-02-14T18:54:39.509Z,99311.76
2018-02-14T18:57:07.059Z,99304.36
2018-02-14T18:59:35.225Z,99315.11
2018-02-14T19:02:03.430Z,99312.79
2018-02-14T19:04:31.019Z,99313.89
2018-02-14T19:06:58.597Z,99310.80
2018-02-14T19:09:26.120Z,99321.90
2018-02-14T19:11:53.675Z,99309.29
2018-02-14T19:14:21.535Z,99325.52
2018-02-14T19:16:49.385Z,99313.27
2018-02-14T19:19:17.303Z,99316.25
2018-02-14T19:21:44.833Z,99320.75
2018-02-14T19:24:12.359Z,99319.71
2018-02-14T19:26:39.935Z,99334.27
2018-02-14T19:29:07.753Z,99319.50
2018-02-14T19:31:35.319Z,99319.16
2018-02-14T19:34:02.845Z,99319.57
2018-02-14T19:36:30.414Z,99310.81
2018-02-14T19:38:57.947Z,99312.49
2018-02-14T19:41:25.477Z,99317.52
2018-02-14T19:43:53.022Z,99319.61
2018-02-14T19:46:22.657Z,99323.69
2018-02-14T19:48:52.482Z,99323.84
2018-02-14T19:51:20.124Z,99321.86
2018-02-14T19:53:47.992Z,99321.67
2018-02-14T19:56:16.025Z,99321.52
2018-02-14T19:58:43.715Z,99335.16
2018-02-14T20:01:12.999Z,99336.09
2018-02-14T20:03:40.568Z,99343.56
2018-02-14T20:06:09.050Z,99348.62
2018-02-14T20:08:36.576Z,99341.23
2018-02-14T20:11:04.940Z,99343.31
2018-02-14T20:13:32.905Z,99333.36
2018-02-14T20:16:03.366Z,99340.77
2018-02-14T20:18:32.210Z,99348.20
2018-02-14T20:21:00.364Z,99334.78
2018-02-14T20:23:29.597Z,99337.08
2018-02-14T20:25:58.854Z,99337.37
2018-02-14T20:28:26.671Z,99339.91
2018-02-14T20:30:54.194Z,99352.26
2018-02-14T20:33:21.775Z,99350.61
2018-02-14T20:35:49.300Z,99339.73
2018-02-14T20:38:16.902Z,99332.27
2018-02-14T20:40:44.426Z,99336.25
2018-02-14T20:43:11.977Z,99324.12
2018-02-14T20:45:40.120Z,99333.80
2018-02-14T20:48:08.626Z,99322.09
2018-02-14T20:50:38.508Z,99321.11
2018-02-14T20:53:07.878Z,99335.06
2018-02-14T20:55:36.497Z,99336.08
2018-02-14T20:58:05.027Z,99321.50
2018-02-14T21:00:35.177Z,99330.03
2018-02-14T21:03:04.471Z,99318.45
2018-02-14T21:05:33.136Z,99314.32
2018-02-14T21:08:00.754Z,99310.48
2018-02-14T21:10:29.151Z,99300.25
2018-02-14T21:12:57.539Z,99313.39
2018-02-14T21:15:27.438Z,99305.66
2018-02-14T21:17:55.793Z,99306.61
2018-02-14T21:20:23.365Z,99298.53
2018-02-14T21:22:50.950Z,99302.52
2018-02-14T21:25:18.472Z,99300.63
2018-02-14T21:27:46.046Z,99305.13
2018-02-14T21:30:14.693Z,99326.45
2018-02-14T21:32:42.919Z,99314.00
2018-02-14T21:35:10.550Z,99306.81
2018-02-14T21:37:38.253Z,99305.96
2018-02-14T21:40:06.972Z,99306.41
2018-02-14T21:42:35.135Z,99302.92
2018-02-14T21:45:03.915Z,99302.13
2018-02-14T21:47:34.364Z,99290.73
2018-02-14T21:50:03.430Z,99290.78
2018-02-14T21:52:31.142Z,99289.72
2018-02-14T21:55:01.068Z,99285.84
2018-02-14T21:57:28.775Z,99281.12
2018-02-14T21:59:59.249Z,99277.39
2018-02-14T22:02:28.499Z,99268.91
2018-02-14T22:04:56.083Z,99256.63
2018-02-14T22:07:25.998Z,99260.19
2018-02-14T22:09:53.662Z,99250.58
2018-02-14T22:12:21.211Z,99249.84
2018-02-14T22:14:48.740Z,99253.37
2018-02-14T22:17:17.537Z,99255.80
2018-02-14T22:19:45.241Z,99257.89
2018-02-14T22:22:14.068Z,99249.88
2018-02-14T22:24:42.198Z,99254.47
2018-02-14T22:27:10.301Z,99256.35
2018-02-14T22:29:40.467Z,99246.85
2018-02-14T22:32:08.549Z,99244.23
2018-02-14T22:34:38.657Z,99248.80
2018-02-14T22:37:07.820Z,99250.62
2018-02-14T22:39:35.589Z,99248.63
2018-02-14T22:42:04.960Z,99241.81
2018-02-14T22:44:33.389Z,99238.91
2018-02-14T22:47:02.823Z,99232.27
2018-02-14T22:49:31.247Z,99225.42
2018-02-14T22:52:01.952Z,99223.58
2018-02-14T22:54:30.449Z,99232.88
2018-02-14T22:56:58.330Z,99223.26
2018-02-14T22:59:26.880Z,99222.11
2018-02-14T23:01:55.584Z,99227.48
2018-02-14T23:04:23.655Z,99221.20
2018-02-14T23:06:52.363Z,99231.50
2018-02-14T23:09:22.237Z,99233.25
2018-02-14T23:11:51.016Z,99237.52
2018-02-14T23:14:19.263Z,99233.88
2018-02-14T23:16:48.498Z,99231.82
2018-02-14T23:19:17.044Z,99235.42
2018-02-14T23:21:46.208Z,99220.88
2018-02-14T23:24:13.977Z,99223.04
2018-02-14T23:26:43.175Z,99217.17
2018-02-14T23:29:12.674Z,99211.09
2018-02-14T23:31:40.962Z,99205.24
2018-02-14T23:34:08.984Z,99192.45
2018-02-14T23:36:38.646Z,99189.23
2018-02-14T23:39:06.316Z,99182.91
2018-02-14T23:41:36.564Z,99175.54
2018-02-14T23:44:04.847Z,99185.54
2018-02-14T23:46:34.034Z,99192.34
2018-02-14T23:49:01.955Z,99188.70
2018-02-14T23:51:34.847Z,99204.37
2018-02-14T23:54:03.206Z,99199.47
2018-02-14T23:56:30.760Z,99198.70
2018-02-14T23:58:58.392Z,99196.83
